SBIL

Details ICAO SBIL (IOS)
Name Ilheus
Region Brazil
Timezone America/Bahia (UTC-3.0)
Plans Departing 51
Arriving 48
Stats Elevation 15 ft / 5 m (AMSL)
Location -14.815964° -39.033197°
Runways 1
Magnetic Variation 23.685° W
Sunrise 2017-12-18 08:04:05 UTC / 2017-12-18 05:04:05 Local
Sunset 2017-12-18 21:04:13 UTC / 2017-12-18 18:04:13 Local
Advertisement - Login to hide

Runways

ID Width Length Bearing (true) Bearing (mag) Surface Threshold Offset Overrun Length
11 148 ft / 45 m 5,127 ft / 1,563 m 88.35° 112.03° Asphalt 0 ft / 0 m 190 ft / 58 m
29 148 ft / 45 m 5,127 ft / 1,563 m 268.34° 292.02° Asphalt 0 ft / 0 m 160 ft / 49 m

Map

Weather


0- 5 10 15 20 25 30 35+ Temperature / ° C

Clouds and Precipitation
Forecast for 2017-12-19 00:00 UTC. Updated an hour ago

Ground ~20,000 ft ~40,000 ft Winds

METAR

Not found

TAF

TAF SBIL 181530Z 1818/1906 11009KT 8000 SCT020 TX28/1818Z TN23/1905Z BECMG 1902/1904 26004KT RMK PEU

Frequencies

Approach 120.10 MHz APP
Warning: Do not use this data for real-world aviation or navigation. No guarantee of current accuracy is given.